Fort Myers, FL

10:58 PM EST on December 07, 2016 (GMT -0500)
Page | | Change Station

Elev 16 ft 26.58 °N, 81.86 °W | Updated 5 minutes ago

Partly Cloudy
Partly Cloudy
69 °F
Feels Like 69 °F
N
6
Wind Variable Wind from NNE

Today
High -- | Low -- °F
--% Chance of Precip.
Yesterday
High -- | Low -- °F
Precip. -- in
Pressure 30.11 in
Visibility 10.0 miles
Clouds Scattered Clouds 7000 ft
Dew Point 63 °F
Humidity 81%
Rainfall 0.00 in
Snow Depth Not available.
7:03 AM 5:35 PM
First Quarter, 59% visible
METAR KFMY 080353Z AUTO 03005KT 10SM SCT070 21/17 A3011 RMK AO2 SLP196 T02060172
Pressure 30.11 in
Visibility 10.0 miles
Clouds Scattered Clouds 7000 ft
Dew Point 63 °F
Humidity 81%
Rainfall 0.00 in
Snow Depth Not available.
7:03 AM 5:35 PM
First Quarter, 59% visible
METAR KFMY 080353Z AUTO 03005KT 10SM SCT070 21/17 A3011 RMK AO2 SLP196 T02060172

10-Day Weather Forecast

Almanac

Astronomy

Dec. 07, 2016 Rise Set
Actual Time
Civil Twilight
Nautical Twilight
Astronomical Twilight
Moon
Length of Visible Light
Length of Day
Tomorrow will be .
, % of the Moon is Illuminated

Today's Extremes

State Highs State Lows

Community

WunderPhotos

Upload Photos

1,956,259 photos uploaded!

WunderBlog® & News

Nearby

Air Quality

  Air Quality AQ Index Pollutant
Not available.

Snow Depth

Station Depth Elevation

Earthquake Activity

City Distance Mag. Time & Date
Minimum magnitude displayed is 2.5.

Coastal Water Temperatures

Place Temperature

Stations

Nearby Weather Stations

Station Location Temp. Windchill Dew Point Humidity Wind Precip. Elev Updated Type
                   

Watches & Warnings

There are currently no watches in effect.